sensor_id;sensor_type;location;lat;lon;timestamp;pressure;altitude;pressure_sealevel;temperature;humidity
58979;BME280;44763;50.464;30.612;2023-08-21T00:01:03;100344.35;;;24.22;73.67
58979;BME280;44763;50.464;30.612;2023-08-21T00:03:04;100345.98;;;24.21;73.99
58979;BME280;44763;50.464;30.612;2023-08-21T00:05:07;100344.20;;;24.18;74.37
58979;BME280;44763;50.464;30.612;2023-08-21T00:07:09;100339.89;;;24.18;74.62
58979;BME280;44763;50.464;30.612;2023-08-21T00:09:12;100342.89;;;24.18;74.65
58979;BME280;44763;50.464;30.612;2023-08-21T00:11:14;100346.93;;;24.15;74.81
58979;BME280;44763;50.464;30.612;2023-08-21T00:13:15;100344.29;;;24.11;75.15
58979;BME280;44763;50.464;30.612;2023-08-21T00:15:18;100347.92;;;24.08;75.14
58979;BME280;44763;50.464;30.612;2023-08-21T00:17:20;100347.23;;;24.09;74.89
58979;BME280;44763;50.464;30.612;2023-08-21T00:19:22;100349.02;;;24.13;74.84
58979;BME280;44763;50.464;30.612;2023-08-21T00:21:24;100352.75;;;24.16;74.80
58979;BME280;44763;50.464;30.612;2023-08-21T00:23:26;100357.85;;;24.21;74.36
58979;BME280;44763;50.464;30.612;2023-08-21T00:25:28;100359.45;;;24.25;74.25
58979;BME280;44763;50.464;30.612;2023-08-21T00:27:30;100360.77;;;24.28;74.03
58979;BME280;44763;50.464;30.612;2023-08-21T00:29:31;100361.30;;;24.29;74.03
58979;BME280;44763;50.464;30.612;2023-08-21T00:31:33;100358.89;;;24.30;74.06
58979;BME280;44763;50.464;30.612;2023-08-21T00:33:36;100360.38;;;24.30;74.59
58979;BME280;44763;50.464;30.612;2023-08-21T00:35:38;100356.46;;;24.28;75.06
58979;BME280;44763;50.464;30.612;2023-08-21T00:37:40;100363.81;;;24.27;75.21
58979;BME280;44763;50.464;30.612;2023-08-21T00:39:43;100360.38;;;24.27;75.20
58979;BME280;44763;50.464;30.612;2023-08-21T00:41:45;100363.98;;;24.25;75.60
58979;BME280;44763;50.464;30.612;2023-08-21T00:43:46;100362.10;;;24.23;75.97
58979;BME280;44763;50.464;30.612;2023-08-21T00:45:49;100364.40;;;24.22;76.03
58979;BME280;44763;50.464;30.612;2023-08-21T00:47:52;100360.24;;;24.21;76.48
58979;BME280;44763;50.464;30.612;2023-08-21T00:49:54;100357.95;;;24.20;76.58
58979;BME280;44763;50.464;30.612;2023-08-21T00:51:56;100359.97;;;24.20;77.01
58979;BME280;44763;50.464;30.612;2023-08-21T00:53:58;100362.91;;;24.20;77.34
58979;BME280;44763;50.464;30.612;2023-08-21T00:56:01;100359.92;;;24.21;77.54
58979;BME280;44763;50.464;30.612;2023-08-21T00:58:04;100353.39;;;24.19;77.67
58979;BME280;44763;50.464;30.612;2023-08-21T01:00:07;100355.92;;;24.17;77.90
58979;BME280;44763;50.464;30.612;2023-08-21T01:02:12;100356.29;;;24.15;77.83
58979;BME280;44763;50.464;30.612;2023-08-21T01:04:14;100356.14;;;24.14;77.95
58979;BME280;44763;50.464;30.612;2023-08-21T01:06:16;100344.64;;;24.06;78.23
58979;BME280;44763;50.464;30.612;2023-08-21T01:10:45;100355.30;;;24.07;78.44
58979;BME280;44763;50.464;30.612;2023-08-21T01:12:57;100350.19;;;24.03;78.57
58979;BME280;44763;50.464;30.612;2023-08-21T01:15:05;100348.88;;;24.02;78.81
58979;BME280;44763;50.464;30.612;2023-08-21T01:17:09;100348.29;;;24.02;78.75
58979;BME280;44763;50.464;30.612;2023-08-21T01:19:30;100346.82;;;24.01;79.07
58979;BME280;44763;50.464;30.612;2023-08-21T01:21:33;100348.79;;;23.99;79.49
58979;BME280;44763;50.464;30.612;2023-08-21T01:23:36;100349.67;;;23.95;79.72
58979;BME280;44763;50.464;30.612;2023-08-21T01:25:40;100348.33;;;23.92;79.79
58979;BME280;44763;50.464;30.612;2023-08-21T01:27:48;100354.38;;;23.89;79.89
58979;BME280;44763;50.464;30.612;2023-08-21T01:29:50;100354.98;;;23.87;79.86
58979;BME280;44763;50.464;30.612;2023-08-21T01:34:11;100355.86;;;23.83;80.29
58979;BME280;44763;50.464;30.612;2023-08-21T01:36:13;100361.63;;;23.82;80.43
58979;BME280;44763;50.464;30.612;2023-08-21T01:38:16;100361.89;;;23.78;80.47
58979;BME280;44763;50.464;30.612;2023-08-21T01:40:22;100365.31;;;23.75;80.82
58979;BME280;44763;50.464;30.612;2023-08-21T01:42:24;100369.83;;;23.76;80.83
58979;BME280;44763;50.464;30.612;2023-08-21T01:44:26;100371.73;;;23.75;80.83
58979;BME280;44763;50.464;30.612;2023-08-21T01:46:28;100370.77;;;23.73;80.73
58979;BME280;44763;50.464;30.612;2023-08-21T01:48:30;100372.06;;;23.75;80.54
58979;BME280;44763;50.464;30.612;2023-08-21T01:50:32;100372.33;;;23.75;80.54
58979;BME280;44763;50.464;30.612;2023-08-21T01:52:34;100363.70;;;23.69;80.37
58979;BME280;44763;50.464;30.612;2023-08-21T01:54:37;100377.29;;;23.76;80.32
58979;BME280;44763;50.464;30.612;2023-08-21T01:56:39;100376.09;;;23.77;80.16
58979;BME280;44763;50.464;30.612;2023-08-21T01:58:40;100377.14;;;23.77;80.13
58979;BME280;44763;50.464;30.612;2023-08-21T02:00:45;100379.52;;;23.78;80.10
58979;BME280;44763;50.464;30.612;2023-08-21T02:02:47;100376.64;;;23.77;79.92
58979;BME280;44763;50.464;30.612;2023-08-21T02:04:49;100371.02;;;23.76;80.00
58979;BME280;44763;50.464;30.612;2023-08-21T02:06:51;100370.77;;;23.74;80.22
58979;BME280;44763;50.464;30.612;2023-08-21T02:08:53;100372.89;;;23.74;80.15
58979;BME280;44763;50.464;30.612;2023-08-21T02:10:54;100371.58;;;23.72;80.28
58979;BME280;44763;50.464;30.612;2023-08-21T02:12:59;100370.45;;;23.71;80.31
58979;BME280;44763;50.464;30.612;2023-08-21T02:15:01;100372.57;;;23.68;80.43
58979;BME280;44763;50.464;30.612;2023-08-21T02:17:06;100374.31;;;23.65;80.66
58979;BME280;44763;50.464;30.612;2023-08-21T02:19:08;100376.39;;;23.66;80.75
58979;BME280;44763;50.464;30.612;2023-08-21T02:21:10;100377.89;;;23.68;80.63
58979;BME280;44763;50.464;30.612;2023-08-21T02:23:12;100376.05;;;23.70;80.58
58979;BME280;44763;50.464;30.612;2023-08-21T02:25:14;100376.77;;;23.72;80.50
58979;BME280;44763;50.464;30.612;2023-08-21T02:27:16;100379.58;;;23.74;80.54
58979;BME280;44763;50.464;30.612;2023-08-21T02:29:18;100379.73;;;23.73;80.89
58979;BME280;44763;50.464;30.612;2023-08-21T02:31:20;100382.52;;;23.71;80.84
58979;BME280;44763;50.464;30.612;2023-08-21T02:33:22;100377.40;;;23.70;80.98
58979;BME280;44763;50.464;30.612;2023-08-21T02:35:24;100377.40;;;23.72;80.96
58979;BME280;44763;50.464;30.612;2023-08-21T02:37:26;100376.71;;;23.71;80.97
58979;BME280;44763;50.464;30.612;2023-08-21T02:39:29;100377.19;;;23.71;81.16
58979;BME280;44763;50.464;30.612;2023-08-21T02:41:31;100375.39;;;23.69;81.11
58979;BME280;44763;50.464;30.612;2023-08-21T02:43:33;100373.55;;;23.69;81.13
58979;BME280;44763;50.464;30.612;2023-08-21T02:45:35;100374.09;;;23.69;81.17
58979;BME280;44763;50.464;30.612;2023-08-21T02:47:37;100375.55;;;23.69;81.27
58979;BME280;44763;50.464;30.612;2023-08-21T02:49:40;100374.91;;;23.68;81.32
58979;BME280;44763;50.464;30.612;2023-08-21T02:51:42;100380.34;;;23.68;81.56
58979;BME280;44763;50.464;30.612;2023-08-21T02:53:45;100379.48;;;23.69;81.54
58979;BME280;44763;50.464;30.612;2023-08-21T02:55:47;100375.23;;;23.70;81.65
58979;BME280;44763;50.464;30.612;2023-08-21T02:57:49;100373.05;;;23.70;81.61
58979;BME280;44763;50.464;30.612;2023-08-21T02:59:51;100372.73;;;23.71;81.65
58979;BME280;44763;50.464;30.612;2023-08-21T03:01:52;100372.51;;;23.70;81.88
58979;BME280;44763;50.464;30.612;2023-08-21T03:03:55;100370.55;;;23.69;82.03
58979;BME280;44763;50.464;30.612;2023-08-21T03:05:56;100357.18;;;23.61;82.13
58979;BME280;44763;50.464;30.612;2023-08-21T03:07:58;100365.66;;;23.66;82.23
58979;BME280;44763;50.464;30.612;2023-08-21T03:10:00;100368.33;;;23.66;82.38
58979;BME280;44763;50.464;30.612;2023-08-21T03:12:04;100367.08;;;23.68;82.40
58979;BME280;44763;50.464;30.612;2023-08-21T03:14:08;100367.67;;;23.70;82.44
58979;BME280;44763;50.464;30.612;2023-08-21T03:16:10;100367.17;;;23.71;82.34
58979;BME280;44763;50.464;30.612;2023-08-21T03:18:12;100365.49;;;23.72;82.18
58979;BME280;44763;50.464;30.612;2023-08-21T03:20:14;100366.95;;;23.78;82.31
58979;BME280;44763;50.464;30.612;2023-08-21T03:22:16;100362.98;;;23.87;82.11
58979;BME280;44763;50.464;30.612;2023-08-21T03:24:18;100362.98;;;24.00;81.78
58979;BME280;44763;50.464;30.612;2023-08-21T03:26:20;100367.02;;;24.14;81.14
58979;BME280;44763;50.464;30.612;2023-08-21T03:28:22;100370.57;;;24.29;80.48
58979;BME280;44763;50.464;30.612;2023-08-21T03:30:24;100363.64;;;24.44;79.80
58979;BME280;44763;50.464;30.612;2023-08-21T03:32:25;100364.31;;;24.62;79.17
58979;BME280;44763;50.464;30.612;2023-08-21T03:34:27;100366.39;;;24.80;78.34
58979;BME280;44763;50.464;30.612;2023-08-21T03:36:32;100371.94;;;24.98;77.30
58979;BME280;44763;50.464;30.612;2023-08-21T03:38:36;100370.80;;;25.12;76.37
58979;BME280;44763;50.464;30.612;2023-08-21T03:40:39;100372.67;;;25.17;75.68
58979;BME280;44763;50.464;30.612;2023-08-21T03:42:40;100370.89;;;25.16;75.80
58979;BME280;44763;50.464;30.612;2023-08-21T03:44:42;100373.08;;;25.23;75.86
58979;BME280;44763;50.464;30.612;2023-08-21T03:46:44;100368.53;;;25.39;75.37
58979;BME280;44763;50.464;30.612;2023-08-21T03:48:46;100369.54;;;25.60;74.73
58979;BME280;44763;50.464;30.612;2023-08-21T03:50:50;100367.53;;;25.84;73.50
58979;BME280;44763;50.464;30.612;2023-08-21T03:52:51;100368.21;;;26.09;72.34
58979;BME280;44763;50.464;30.612;2023-08-21T03:54:55;100368.80;;;26.37;71.41
58979;BME280;44763;50.464;30.612;2023-08-21T03:56:57;100361.45;;;26.60;70.12
58979;BME280;44763;50.464;30.612;2023-08-21T03:58:59;100366.67;;;26.75;69.10
58979;BME280;44763;50.464;30.612;2023-08-21T04:01:02;100361.98;;;26.81;68.54
58979;BME280;44763;50.464;30.612;2023-08-21T04:03:04;100366.30;;;26.91;68.51
58979;BME280;44763;50.464;30.612;2023-08-21T04:05:06;100370.30;;;27.06;67.88
58979;BME280;44763;50.464;30.612;2023-08-21T04:07:08;100372.27;;;27.18;66.92
58979;BME280;44763;50.464;30.612;2023-08-21T04:09:12;100373.17;;;27.24;66.50
58979;BME280;44763;50.464;30.612;2023-08-21T04:11:15;100369.94;;;27.28;66.10
58979;BME280;44763;50.464;30.612;2023-08-21T04:13:18;100375.45;;;27.27;66.25
58979;BME280;44763;50.464;30.612;2023-08-21T04:15:19;100370.55;;;27.24;65.95
58979;BME280;44763;50.464;30.612;2023-08-21T04:17:22;100373.57;;;27.20;65.71
58979;BME280;44763;50.464;30.612;2023-08-21T04:19:24;100372.67;;;27.14;65.54
58979;BME280;44763;50.464;30.612;2023-08-21T04:21:31;100380.16;;;27.05;66.02
58979;BME280;44763;50.464;30.612;2023-08-21T04:23:33;100380.40;;;27.07;66.02
58979;BME280;44763;50.464;30.612;2023-08-21T04:25:35;100376.26;;;27.13;65.62
58979;BME280;44763;50.464;30.612;2023-08-21T04:27:37;100379.05;;;27.19;65.40
58979;BME280;44763;50.464;30.612;2023-08-21T04:29:39;100379.52;;;27.29;65.21
58979;BME280;44763;50.464;30.612;2023-08-21T04:31:41;100376.92;;;27.41;64.18
58979;BME280;44763;50.464;30.612;2023-08-21T04:33:43;100376.59;;;27.47;63.66
58979;BME280;44763;50.464;30.612;2023-08-21T04:35:45;100378.48;;;27.54;63.72
58979;BME280;44763;50.464;30.612;2023-08-21T04:37:47;100377.23;;;27.71;63.29
58979;BME280;44763;50.464;30.612;2023-08-21T04:39:51;100377.77;;;27.78;62.47
58979;BME280;44763;50.464;30.612;2023-08-21T04:41:54;100375.73;;;27.75;62.50
58979;BME280;44763;50.464;30.612;2023-08-21T04:43:58;100378.48;;;27.73;62.66
58979;BME280;44763;50.464;30.612;2023-08-21T04:46:00;100383.71;;;27.76;62.75
58979;BME280;44763;50.464;30.612;2023-08-21T04:48:04;100381.23;;;27.87;62.65
58979;BME280;44763;50.464;30.612;2023-08-21T04:50:07;100380.56;;;28.02;61.51
58979;BME280;44763;50.464;30.612;2023-08-21T04:52:09;100382.14;;;28.14;61.19
58979;BME280;44763;50.464;30.612;2023-08-21T04:54:11;100378.83;;;28.31;60.49
58979;BME280;44763;50.464;30.612;2023-08-21T04:56:13;100381.31;;;28.45;59.98
58979;BME280;44763;50.464;30.612;2023-08-21T04:58:15;100375.19;;;28.61;59.47
58979;BME280;44763;50.464;30.612;2023-08-21T05:00:19;100381.31;;;28.75;58.84
58979;BME280;44763;50.464;30.612;2023-08-21T05:02:20;100383.94;;;28.84;58.41
58979;BME280;44763;50.464;30.612;2023-08-21T05:04:23;100380.92;;;28.91;57.90
58979;BME280;44763;50.464;30.612;2023-08-21T05:06:25;100379.48;;;28.95;57.75
58979;BME280;44763;50.464;30.612;2023-08-21T05:08:27;100380.44;;;28.98;57.98
58979;BME280;44763;50.464;30.612;2023-08-21T05:10:29;100383.52;;;29.05;57.73
58979;BME280;44763;50.464;30.612;2023-08-21T05:12:31;100382.33;;;29.16;57.83
58979;BME280;44763;50.464;30.612;2023-08-21T05:14:33;100381.47;;;29.26;56.99
58979;BME280;44763;50.464;30.612;2023-08-21T05:16:35;100379.30;;;29.27;57.11
58979;BME280;44763;50.464;30.612;2023-08-21T05:18:37;100383.14;;;29.30;56.78
58979;BME280;44763;50.464;30.612;2023-08-21T05:20:39;100380.40;;;29.25;56.94
58979;BME280;44763;50.464;30.612;2023-08-21T05:22:41;100380.45;;;29.20;57.08
58979;BME280;44763;50.464;30.612;2023-08-21T05:24:43;100379.55;;;29.15;57.86
58979;BME280;44763;50.464;30.612;2023-08-21T05:26:45;100381.73;;;29.12;57.84
58979;BME280;44763;50.464;30.612;2023-08-21T05:28:47;100377.96;;;29.12;58.01
58979;BME280;44763;50.464;30.612;2023-08-21T05:30:49;100379.42;;;29.13;58.09
58979;BME280;44763;50.464;30.612;2023-08-21T05:32:52;100381.58;;;29.20;58.47
58979;BME280;44763;50.464;30.612;2023-08-21T05:34:54;100385.73;;;29.31;58.05
58979;BME280;44763;50.464;30.612;2023-08-21T05:36:56;100383.23;;;29.47;57.73
58979;BME280;44763;50.464;30.612;2023-08-21T05:39:02;100384.36;;;29.65;56.87
58979;BME280;44763;50.464;30.612;2023-08-21T05:41:08;100384.48;;;29.75;56.95
58979;BME280;44763;50.464;30.612;2023-08-21T05:43:10;100384.71;;;29.84;56.46
58979;BME280;44763;50.464;30.612;2023-08-21T05:45:15;100382.52;;;29.91;56.79
58979;BME280;44763;50.464;30.612;2023-08-21T05:47:17;100381.30;;;30.08;56.01
58979;BME280;44763;50.464;30.612;2023-08-21T05:49:18;100382.24;;;30.29;55.35
58979;BME280;44763;50.464;30.612;2023-08-21T05:51:20;100381.80;;;30.43;54.73
58979;BME280;44763;50.464;30.612;2023-08-21T05:53:23;100379.85;;;30.53;54.36
58979;BME280;44763;50.464;30.612;2023-08-21T05:55:26;100383.99;;;30.56;53.98
58979;BME280;44763;50.464;30.612;2023-08-21T05:57:28;100383.52;;;30.52;53.97
58979;BME280;44763;50.464;30.612;2023-08-21T05:59:31;100384.88;;;30.48;54.20
58979;BME280;44763;50.464;30.612;2023-08-21T06:01:34;100379.46;;;30.50;54.47
58979;BME280;44763;50.464;30.612;2023-08-21T06:03:37;100382.36;;;30.53;54.17
58979;BME280;44763;50.464;30.612;2023-08-21T06:05:54;100381.33;;;30.48;54.06
58979;BME280;44763;50.464;30.612;2023-08-21T06:07:56;100380.65;;;30.37;54.61
58979;BME280;44763;50.464;30.612;2023-08-21T06:09:58;100380.23;;;30.36;55.11
58979;BME280;44763;50.464;30.612;2023-08-21T06:12:00;100379.38;;;30.41;54.75
58979;BME280;44763;50.464;30.612;2023-08-21T06:14:06;100376.42;;;30.47;54.64
58979;BME280;44763;50.464;30.612;2023-08-21T06:16:07;100379.10;;;30.51;55.03
58979;BME280;44763;50.464;30.612;2023-08-21T06:18:11;100375.89;;;30.54;54.96
58979;BME280;44763;50.464;30.612;2023-08-21T06:20:13;100379.03;;;30.61;54.51
58979;BME280;44763;50.464;30.612;2023-08-21T06:22:15;100379.95;;;30.62;53.96
58979;BME280;44763;50.464;30.612;2023-08-21T06:24:17;100381.36;;;30.59;54.13
58979;BME280;44763;50.464;30.612;2023-08-21T06:28:44;100381.56;;;30.31;55.09
58979;BME280;44763;50.464;30.612;2023-08-21T06:30:46;100383.02;;;30.06;56.22
58979;BME280;44763;50.464;30.612;2023-08-21T06:32:48;100363.63;;;29.83;56.43
58979;BME280;44763;50.464;30.612;2023-08-21T06:34:51;100384.62;;;29.95;57.06
58979;BME280;44763;50.464;30.612;2023-08-21T06:36:53;100383.36;;;30.06;56.60
58979;BME280;44763;50.464;30.612;2023-08-21T06:38:55;100387.77;;;30.08;56.77
58979;BME280;44763;50.464;30.612;2023-08-21T06:40:57;100388.11;;;30.14;56.55
58979;BME280;44763;50.464;30.612;2023-08-21T06:42:59;100385.23;;;30.15;56.81
58979;BME280;44763;50.464;30.612;2023-08-21T06:45:05;100383.85;;;30.15;56.95
58979;BME280;44763;50.464;30.612;2023-08-21T06:47:07;100381.63;;;30.18;56.84
58979;BME280;44763;50.464;30.612;2023-08-21T06:49:09;100380.41;;;30.22;56.63
58979;BME280;44763;50.464;30.612;2023-08-21T06:51:11;100383.97;;;30.34;56.39
58979;BME280;44763;50.464;30.612;2023-08-21T06:53:16;100381.48;;;30.42;56.05
58979;BME280;44763;50.464;30.612;2023-08-21T06:55:19;100383.02;;;30.44;55.96
58979;BME280;44763;50.464;30.612;2023-08-21T06:57:21;100379.70;;;30.38;55.96
58979;BME280;44763;50.464;30.612;2023-08-21T06:59:23;100374.42;;;30.29;55.94
58979;BME280;44763;50.464;30.612;2023-08-21T07:01:25;100376.18;;;30.27;56.26
58979;BME280;44763;50.464;30.612;2023-08-21T07:03:27;100376.95;;;30.33;55.76
58979;BME280;44763;50.464;30.612;2023-08-21T07:05:29;100372.45;;;30.39;55.11
58979;BME280;44763;50.464;30.612;2023-08-21T07:07:31;100373.89;;;30.46;54.91
58979;BME280;44763;50.464;30.612;2023-08-21T07:09:32;100372.95;;;30.59;54.15
58979;BME280;44763;50.464;30.612;2023-08-21T07:11:34;100373.06;;;30.61;53.16
58979;BME280;44763;50.464;30.612;2023-08-21T07:13:36;100376.41;;;30.46;53.83
58979;BME280;44763;50.464;30.612;2023-08-21T07:15:38;100376.19;;;30.33;54.71
58979;BME280;44763;50.464;30.612;2023-08-21T07:17:41;100377.45;;;30.29;54.18
58979;BME280;44763;50.464;30.612;2023-08-21T07:19:42;100372.80;;;30.21;54.12
58979;BME280;44763;50.464;30.612;2023-08-21T07:21:48;100372.89;;;30.04;55.16
58979;BME280;44763;50.464;30.612;2023-08-21T07:23:50;100371.42;;;29.94;56.10
58979;BME280;44763;50.464;30.612;2023-08-21T07:25:52;100370.83;;;29.91;55.79
58979;BME280;44763;50.464;30.612;2023-08-21T07:27:54;100371.06;;;29.89;55.87
58979;BME280;44763;50.464;30.612;2023-08-21T07:29:56;100368.26;;;29.83;55.72
58979;BME280;44763;50.464;30.612;2023-08-21T07:31:58;100369.11;;;29.80;55.73
58979;BME280;44763;50.464;30.612;2023-08-21T07:34:00;100371.26;;;29.82;55.29
58979;BME280;44763;50.464;30.612;2023-08-21T07:36:04;100366.39;;;29.85;54.99
58979;BME280;44763;50.464;30.612;2023-08-21T07:38:06;100370.36;;;29.84;54.93
58979;BME280;44763;50.464;30.612;2023-08-21T07:40:08;100371.13;;;29.81;55.07
58979;BME280;44763;50.464;30.612;2023-08-21T07:42:13;100369.95;;;29.78;55.08
58979;BME280;44763;50.464;30.612;2023-08-21T07:44:14;100370.29;;;29.75;54.96
58979;BME280;44763;50.464;30.612;2023-08-21T07:46:16;100369.02;;;29.72;55.38
58979;BME280;44763;50.464;30.612;2023-08-21T07:48:20;100367.10;;;29.72;55.22
58979;BME280;44763;50.464;30.612;2023-08-21T07:50:22;100372.73;;;29.69;55.47
58979;BME280;44763;50.464;30.612;2023-08-21T07:52:23;100366.44;;;29.66;55.62
58979;BME280;44763;50.464;30.612;2023-08-21T07:54:25;100365.94;;;29.62;55.42
58979;BME280;44763;50.464;30.612;2023-08-21T07:56:27;100365.98;;;29.60;55.47
58979;BME280;44763;50.464;30.612;2023-08-21T07:58:29;100359.66;;;29.60;55.73
58979;BME280;44763;50.464;30.612;2023-08-21T08:00:32;100362.16;;;29.62;55.63
58979;BME280;44763;50.464;30.612;2023-08-21T08:02:34;100363.06;;;29.63;55.77
58979;BME280;44763;50.464;30.612;2023-08-21T08:04:37;100363.23;;;29.66;55.64
58979;BME280;44763;50.464;30.612;2023-08-21T08:06:38;100358.34;;;29.69;55.72
58979;BME280;44763;50.464;30.612;2023-08-21T08:08:40;100360.25;;;29.69;55.86
58979;BME280;44763;50.464;30.612;2023-08-21T08:10:43;100358.68;;;29.71;55.81
58979;BME280;44763;50.464;30.612;2023-08-21T08:12:44;100356.29;;;29.72;55.49
58979;BME280;44763;50.464;30.612;2023-08-21T08:14:46;100360.99;;;29.73;55.92
58979;BME280;44763;50.464;30.612;2023-08-21T08:16:48;100356.66;;;29.76;55.75
58979;BME280;44763;50.464;30.612;2023-08-21T08:18:50;100355.83;;;29.78;55.99
58979;BME280;44763;50.464;30.612;2023-08-21T08:20:52;100351.29;;;29.83;55.72
58979;BME280;44763;50.464;30.612;2023-08-21T08:22:54;100352.86;;;29.89;54.91
58979;BME280;44763;50.464;30.612;2023-08-21T08:24:56;100351.90;;;29.92;54.45
58979;BME280;44763;50.464;30.612;2023-08-21T08:26:58;100352.69;;;29.96;54.07
58979;BME280;44763;50.464;30.612;2023-08-21T08:28:59;100355.55;;;30.01;54.56
58979;BME280;44763;50.464;30.612;2023-08-21T08:31:02;100353.23;;;30.05;54.42
58979;BME280;44763;50.464;30.612;2023-08-21T08:33:04;100350.23;;;30.12;54.35
58979;BME280;44763;50.464;30.612;2023-08-21T08:35:07;100353.46;;;30.20;54.17
58979;BME280;44763;50.464;30.612;2023-08-21T08:37:09;100348.80;;;30.18;53.60
58979;BME280;44763;50.464;30.612;2023-08-21T08:39:11;100354.77;;;30.21;53.48
58979;BME280;44763;50.464;30.612;2023-08-21T08:41:38;100350.23;;;30.18;53.73
58979;BME280;44763;50.464;30.612;2023-08-21T08:43:44;100346.83;;;30.18;54.03
58979;BME280;44763;50.464;30.612;2023-08-21T08:45:47;100348.48;;;30.18;53.57
58979;BME280;44763;50.464;30.612;2023-08-21T08:47:51;100348.02;;;30.18;53.63
58979;BME280;44763;50.464;30.612;2023-08-21T08:52:38;100341.37;;;30.30;53.70
58979;BME280;44763;50.464;30.612;2023-08-21T08:54:41;100346.70;;;30.41;52.80
58979;BME280;44763;50.464;30.612;2023-08-21T08:56:43;100341.02;;;30.45;52.18
58979;BME280;44763;50.464;30.612;2023-08-21T08:58:47;100341.67;;;30.50;52.22
58979;BME280;44763;50.464;30.612;2023-08-21T09:00:48;100339.34;;;30.50;52.52
58979;BME280;44763;50.464;30.612;2023-08-21T09:02:51;100342.73;;;30.53;51.03
58979;BME280;44763;50.464;30.612;2023-08-21T09:04:53;100337.17;;;30.53;51.19
58979;BME280;44763;50.464;30.612;2023-08-21T09:07:08;100333.48;;;30.51;51.75
58979;BME280;44763;50.464;30.612;2023-08-21T09:09:12;100335.48;;;30.48;51.83
58979;BME280;44763;50.464;30.612;2023-08-21T09:11:16;100331.02;;;30.51;52.24
58979;BME280;44763;50.464;30.612;2023-08-21T09:13:19;100334.61;;;30.55;51.17
58979;BME280;44763;50.464;30.612;2023-08-21T09:15:27;100323.35;;;30.51;50.56
58979;BME280;44763;50.464;30.612;2023-08-21T09:17:41;100332.44;;;30.53;50.02
58979;BME280;44763;50.464;30.612;2023-08-21T09:19:44;100336.31;;;30.46;48.80
58979;BME280;44763;50.464;30.612;2023-08-21T09:21:49;100333.95;;;30.39;47.44
58979;BME280;44763;50.464;30.612;2023-08-21T09:23:57;100328.48;;;30.32;48.15
58979;BME280;44763;50.464;30.612;2023-08-21T09:26:01;100330.79;;;30.33;48.26
58979;BME280;44763;50.464;30.612;2023-08-21T09:28:05;100334.44;;;30.39;47.86
58979;BME280;44763;50.464;30.612;2023-08-21T09:30:11;100333.02;;;30.44;46.59
58979;BME280;44763;50.464;30.612;2023-08-21T09:32:17;100331.17;;;30.49;45.18
58979;BME280;44763;50.464;30.612;2023-08-21T09:34:18;100328.65;;;30.47;44.58
58979;BME280;44763;50.464;30.612;2023-08-21T09:36:20;100322.06;;;30.43;45.68
58979;BME280;44763;50.464;30.612;2023-08-21T09:38:26;100319.98;;;30.39;45.94
58979;BME280;44763;50.464;30.612;2023-08-21T09:40:28;100318.36;;;30.42;45.37
58979;BME280;44763;50.464;30.612;2023-08-21T09:42:30;100323.15;;;30.45;44.15
58979;BME280;44763;50.464;30.612;2023-08-21T09:44:37;100321.89;;;30.45;43.79
58979;BME280;44763;50.464;30.612;2023-08-21T09:46:40;100317.56;;;30.46;44.26
58979;BME280;44763;50.464;30.612;2023-08-21T09:48:44;100317.88;;;30.50;44.20
58979;BME280;44763;50.464;30.612;2023-08-21T09:50:47;100311.58;;;30.53;44.58
58979;BME280;44763;50.464;30.612;2023-08-21T09:52:49;100310.02;;;30.54;45.14
58979;BME280;44763;50.464;30.612;2023-08-21T09:54:56;100312.09;;;30.59;44.97
58979;BME280;44763;50.464;30.612;2023-08-21T09:57:02;100309.18;;;30.68;44.92
58979;BME280;44763;50.464;30.612;2023-08-21T09:59:04;100308.66;;;30.74;44.93
58979;BME280;44763;50.464;30.612;2023-08-21T10:01:08;100304.31;;;30.77;44.60
58979;BME280;44763;50.464;30.612;2023-08-21T10:03:23;100302.59;;;30.81;44.60
58979;BME280;44763;50.464;30.612;2023-08-21T10:05:29;100305.19;;;30.88;44.73
58979;BME280;44763;50.464;30.612;2023-08-21T10:07:31;100304.80;;;30.97;45.24
58979;BME280;44763;50.464;30.612;2023-08-21T10:09:35;100301.93;;;31.05;44.97
58979;BME280;44763;50.464;30.612;2023-08-21T10:11:38;100301.57;;;31.09;45.06
58979;BME280;44763;50.464;30.612;2023-08-21T10:13:41;100299.71;;;31.12;45.07
58979;BME280;44763;50.464;30.612;2023-08-21T10:15:44;100302.58;;;31.11;45.19
58979;BME280;44763;50.464;30.612;2023-08-21T10:17:49;100306.37;;;31.07;45.51
58979;BME280;44763;50.464;30.612;2023-08-21T10:19:51;100312.07;;;31.03;44.98
58979;BME280;44763;50.464;30.612;2023-08-21T10:21:57;100312.27;;;30.90;45.26
58979;BME280;44763;50.464;30.612;2023-08-21T10:24:01;100310.02;;;30.73;45.44
58979;BME280;44763;50.464;30.612;2023-08-21T10:26:07;100305.10;;;30.61;46.27
58979;BME280;44763;50.464;30.612;2023-08-21T10:28:10;100301.75;;;30.58;46.75
58979;BME280;44763;50.464;30.612;2023-08-21T10:30:20;100294.20;;;30.58;46.42
58979;BME280;44763;50.464;30.612;2023-08-21T10:32:22;100293.42;;;30.53;46.56
58979;BME280;44763;50.464;30.612;2023-08-21T10:34:31;100286.39;;;30.47;46.70
58979;BME280;44763;50.464;30.612;2023-08-21T10:39:02;100288.11;;;30.33;47.08
58979;BME280;44763;50.464;30.612;2023-08-21T10:41:07;100292.21;;;30.20;47.35
58979;BME280;44763;50.464;30.612;2023-08-21T10:43:38;100292.16;;;30.09;47.66
58979;BME280;44763;50.464;30.612;2023-08-21T10:45:53;100304.16;;;29.95;48.34
58979;BME280;44763;50.464;30.612;2023-08-21T10:47:59;100305.55;;;29.83;48.64